Time;durP1;ratioP1;P1;durP2;ratioP2;P2;SDS_P1;SDS_P2;PMS_P1;PMS_P2;Temp;Humidity;BMP_temperature;BMP_pressure;BME280_temperature;BME280_humidity;BME280_pressure;Samples;Min_cycle;Max_cycle;Signal;HPM_P1;HPM_P2
2021/11/20 00:02:28;;;;;;;12.77;6.95;;;;;;;11.26;86.70;102883.94;5056045;28;20456;-70
2021/11/20 00:04:54;;;;;;;12.20;6.60;;;;;;;11.23;86.56;102875.66;5055879;28;20500;-70
2021/11/20 00:07:21;;;;;;;11.35;6.75;;;;;;;11.18;86.41;102872.66;5038033;28;20120;-70
2021/11/20 00:09:47;;;;;;;12.57;6.60;;;;;;;11.14;86.24;102874.72;5055946;28;20036;-70
2021/11/20 00:12:20;;;;;;;13.90;7.20;;;;;;;11.05;86.95;102867.81;5055902;28;20029;-70
2021/11/20 00:14:45;;;;;;;;;;;;;;;11.06;86.90;102870.22;5038289;28;20060;-70
2021/11/20 00:17:11;;;;;;;11.60;6.95;;;;;;;11.09;87.24;102871.72;5054726;28;19955;-70
2021/11/20 00:19:36;;;;;;;14.45;7.00;;;;;;;11.10;87.05;102872.53;5055625;28;20384;-70
2021/11/20 00:22:10;;;;;;;14.18;6.95;;;;;;;11.17;86.72;102879.63;5055378;28;20017;-70
2021/11/20 00:24:39;;;;;;;12.45;7.47;;;;;;;11.12;86.59;102876.63;5055210;28;20123;-70
2021/11/20 00:27:08;;;;;;;13.98;7.50;;;;;;;11.10;86.40;102869.94;5055303;28;20024;-70
2021/11/20 00:29:45;;;;;;;10.90;7.15;;;;;;;11.10;86.45;102868.19;5055542;28;20096;-69
2021/11/20 00:32:15;;;;;;;12.98;7.95;;;;;;;11.11;86.51;102875.00;5055532;28;20096;-69
2021/11/20 00:34:43;;;;;;;12.13;7.75;;;;;;;11.14;86.25;102869.53;5037420;28;20035;-69
2021/11/20 00:37:09;;;;;;;11.93;7.90;;;;;;;11.12;86.55;102868.84;5055279;28;20546;-70
2021/11/20 00:39:35;;;;;;;9.55;7.32;;;;;;;11.11;86.32;102869.81;5055326;28;20017;-69
2021/11/20 00:42:01;;;;;;;14.00;7.97;;;;;;;11.13;85.92;102861.91;5055330;28;20475;-69
2021/11/20 00:44:27;;;;;;;13.95;8.13;;;;;;;11.16;86.32;102862.44;5055285;28;20357;-70
2021/11/20 00:46:53;;;;;;;12.70;7.78;;;;;;;11.12;86.34;102855.91;5055775;28;20067;-70
2021/11/20 00:49:20;;;;;;;12.60;8.10;;;;;;;11.07;86.40;102847.75;5055098;28;20533;-70
2021/11/20 00:51:47;;;;;;;14.00;8.13;;;;;;;11.11;86.58;102861.25;5055192;28;20486;-70
2021/11/20 00:54:13;;;;;;;13.93;8.63;;;;;;;11.10;86.07;102857.81;5054997;28;20024;-70
2021/11/20 00:56:40;;;;;;;11.95;8.40;;;;;;;11.12;86.35;102861.09;5054958;28;20068;-70
2021/11/20 00:59:06;;;;;;;14.20;9.10;;;;;;;11.22;85.60;102850.72;5054886;28;20028;-70
2021/11/20 01:01:41;;;;;;;13.88;8.80;;;;;;;11.04;86.29;102843.66;5054908;28;20112;-70
2021/11/20 01:04:07;;;;;;;13.27;8.23;;;;;;;11.09;86.39;102848.44;5055140;28;20079;-70
2021/11/20 01:06:33;;;;;;;15.60;9.00;;;;;;;11.14;85.85;102843.66;5036874;28;20442;-70
2021/11/20 01:08:59;;;;;;;13.20;8.65;;;;;;;11.11;85.87;102833.59;5054792;28;20036;-70
2021/11/20 01:11:29;;;;;;;14.73;8.88;;;;;;;11.10;86.24;102841.50;5054690;28;20132;-70
2021/11/20 01:13:57;;;;;;;13.18;8.32;;;;;;;11.11;86.41;102836.19;5036890;28;20380;-70
2021/11/20 01:16:24;;;;;;;16.38;8.30;;;;;;;11.19;86.09;102851.84;5054547;28;20021;-70
2021/11/20 01:18:50;;;;;;;14.60;8.50;;;;;;;11.15;86.15;102841.91;5054557;28;20033;-70
2021/11/20 01:21:16;;;;;;;14.18;8.80;;;;;;;11.10;86.01;102842.31;5036603;28;20111;-70
2021/11/20 01:23:43;;;;;;;14.85;8.60;;;;;;;11.12;86.14;102832.63;5054518;28;20444;-70
2021/11/20 01:26:08;;;;;;;14.65;9.75;;;;;;;11.12;85.83;102830.03;5054391;28;20025;-69
2021/11/20 01:28:36;;;;;;;18.40;8.13;;;;;;;11.07;86.16;102845.16;5036424;28;20032;-70
2021/11/20 01:31:04;;;;;;;16.67;8.38;;;;;;;11.10;86.11;102850.06;5036474;28;20025;-70
2021/11/20 01:33:29;;;;;;;12.88;7.65;;;;;;;11.10;85.71;102815.63;5054239;28;20040;-70
2021/11/20 01:35:55;;;;;;;13.65;7.80;;;;;;;11.07;85.95;102824.47;5036282;28;20068;-70
2021/11/20 01:38:20;;;;;;;17.90;7.88;;;;;;;11.08;85.72;102826.13;5054200;28;20441;-70
2021/11/20 01:40:47;;;;;;;11.95;7.35;;;;;;;11.08;86.00;102836.47;5036281;28;20029;-70
2021/11/20 01:43:12;;;;;;;13.80;7.70;;;;;;;11.06;86.31;102830.59;5036196;28;20060;-70
2021/11/20 01:45:49;;;;;;;13.60;7.38;;;;;;;11.01;85.97;102819.84;5036174;28;20033;-70
2021/11/20 01:48:32;;;;;;;14.32;7.47;;;;;;;11.06;85.37;102820.25;5054639;28;20025;-70
2021/11/20 01:51:29;;;;;;;11.57;7.55;;;;;;;10.97;86.09;102814.16;5054588;28;20060;-70
2021/11/20 01:54:35;;;;;;;14.43;7.75;;;;;;;11.06;85.74;102818.47;5049345;28;20040;-70
2021/11/20 01:57:05;;;;;;;12.20;7.53;;;;;;;10.91;86.41;102811.31;5035950;28;20079;-70
2021/11/20 01:59:53;;;;;;;12.73;7.80;;;;;;;10.97;85.98;102815.94;5054073;28;20025;-70
2021/11/20 02:02:37;;;;;;;15.63;7.90;;;;;;;10.95;85.92;102818.66;5054437;28;20024;-70
2021/11/20 02:05:16;;;;;;;17.13;8.00;;;;;;;10.98;86.08;102809.78;5053588;28;20396;-70
2021/11/20 02:07:48;;;;;;;15.32;8.13;;;;;;;10.95;86.11;102799.72;5035960;28;20031;-70
2021/11/20 02:10:21;;;;;;;14.90;8.48;;;;;;;10.90;86.10;102805.31;5053701;28;20041;-70
2021/11/20 02:12:52;;;;;;;16.92;8.65;;;;;;;10.93;85.74;102815.38;5053710;28;20036;-70
2021/11/20 02:15:24;;;;;;;17.60;8.52;;;;;;;11.02;85.39;102814.56;5054215;28;20024;-70
2021/11/20 02:17:53;;;;;;;14.80;9.73;;;;;;;10.96;85.50;102804.78;5054060;28;20067;-70
2021/11/20 02:20:27;;;;;;;14.88;9.20;;;;;;;10.90;85.96;102802.72;5053520;28;20033;-70
2021/11/20 02:22:52;;;;;;;16.77;8.77;;;;;;;10.84;85.62;102791.16;5053505;28;20491;-70
2021/11/20 02:25:20;;;;;;;15.40;9.97;;;;;;;10.87;85.75;102787.47;5054048;28;20028;-70
2021/11/20 02:27:49;;;;;;;17.00;10.52;;;;;;;10.83;85.50;102794.72;5053361;28;20278;-70
2021/11/20 02:30:25;;;;;;;15.35;10.25;;;;;;;10.87;85.49;102795.25;5053392;28;20021;-70
2021/11/20 02:32:57;;;;;;;19.10;10.35;;;;;;;10.88;85.47;102790.91;5053497;28;20036;-70
2021/11/20 02:35:31;;;;;;;18.80;10.50;;;;;;;10.89;85.43;102787.34;5053494;28;20473;-70
2021/11/20 02:37:57;;;;;;;17.95;10.88;;;;;;;10.90;85.07;102786.38;5035473;28;20467;-70
2021/11/20 02:40:24;;;;;;;16.45;11.07;;;;;;;10.88;85.23;102780.56;5034971;28;20028;-71
2021/11/20 02:42:50;;;;;;;17.70;11.00;;;;;;;10.82;85.85;102779.34;5053304;28;20111;-70
2021/11/20 02:45:15;;;;;;;19.58;11.70;;;;;;;10.85;85.52;102771.31;5053863;28;20033;-70
2021/11/20 02:47:40;;;;;;;21.35;12.35;;;;;;;10.80;85.49;102770.91;5053267;28;20024;-70
2021/11/20 02:50:06;;;;;;;18.25;11.68;;;;;;;10.87;84.94;102773.75;5053455;28;20048;-70
2021/11/20 02:52:31;;;;;;;18.50;12.18;;;;;;;10.80;85.14;102769.13;5035354;28;20025;-70
2021/11/20 02:54:57;;;;;;;18.35;12.05;;;;;;;10.89;85.11;102777.00;5035296;28;20442;-70
2021/11/20 02:57:32;;;;;;;20.77;12.70;;;;;;;10.76;85.39;102765.19;5053103;28;20017;-70
2021/11/20 02:59:58;;;;;;;18.67;12.57;;;;;;;10.80;85.08;102769.13;5052955;28;20029;-70
2021/11/20 03:02:24;;;;;;;16.85;12.10;;;;;;;10.79;85.40;102759.75;5035290;28;20529;-70
2021/11/20 03:04:49;;;;;;;20.35;12.20;;;;;;;10.88;84.88;102760.69;5035130;28;20048;-70
2021/11/20 03:07:15;;;;;;;20.83;12.68;;;;;;;10.86;84.96;102764.34;5035205;28;20025;-70
2021/11/20 03:09:41;;;;;;;18.52;12.70;;;;;;;10.73;85.28;102755.13;5035172;28;20021;-70
2021/11/20 03:12:10;;;;;;;21.67;12.90;;;;;;;10.77;84.91;102755.66;5052989;28;20028;-69
2021/11/20 03:14:36;;;;;;;18.70;12.52;;;;;;;10.73;85.47;102752.56;5052997;28;20107;-69
2021/11/20 03:17:06;;;;;;;21.73;14.07;;;;;;;10.74;85.51;102753.38;5052908;28;20532;-69
2021/11/20 03:19:36;;;;;;;20.35;13.15;;;;;;;10.77;85.57;102745.31;5034995;28;20487;-70
2021/11/20 03:22:11;;;;;;;21.40;13.95;;;;;;;10.71;85.44;102746.69;5052928;28;20025;-70
2021/11/20 03:24:37;;;;;;;24.00;13.65;;;;;;;10.81;85.18;102750.06;5052951;28;20021;-69
2021/11/20 03:27:04;;;;;;;26.67;14.27;;;;;;;10.76;85.17;102744.50;5052909;28;20027;-70
2021/11/20 03:29:30;;;;;;;28.00;13.82;;;;;;;10.75;84.97;102747.22;5052805;28;20029;-69
2021/11/20 03:31:56;;;;;;;23.55;14.18;;;;;;;10.78;85.10;102739.19;5035015;28;20028;-70
2021/11/20 03:34:23;;;;;;;22.70;13.98;;;;;;;10.79;84.91;102736.47;5052883;28;20066;-69
2021/11/20 03:36:49;;;;;;;20.27;13.95;;;;;;;10.78;85.29;102737.41;5052948;28;20029;-69
2021/11/20 03:39:15;;;;;;;24.60;14.65;;;;;;;10.72;85.47;102737.97;5053333;28;20028;-69
2021/11/20 03:41:40;;;;;;;24.50;15.00;;;;;;;10.76;85.13;102739.34;5034954;28;20025;-70
2021/11/20 03:44:06;;;;;;;22.42;14.73;;;;;;;10.74;85.00;102732.69;5034858;28;20150;-70
2021/11/20 03:46:32;;;;;;;25.52;15.48;;;;;;;10.66;85.43;102735.13;5034867;28;20021;-70
2021/11/20 03:48:58;;;;;;;24.77;15.43;;;;;;;10.68;85.80;102728.88;5034817;28;20086;-70
2021/11/20 03:51:24;;;;;;;22.92;15.75;;;;;;;10.75;85.37;102729.13;5053481;28;20082;-70
2021/11/20 03:53:51;;;;;;;25.15;15.00;;;;;;;10.69;85.38;102725.31;5056217;28;20024;-70
2021/11/20 03:56:17;;;;;;;25.70;16.50;;;;;;;10.70;85.04;102726.94;5056118;28;20112;-70
2021/11/20 03:58:42;;;;;;;24.25;15.13;;;;;;;10.65;85.09;102734.34;5056172;28;20064;-70
2021/11/20 04:01:11;;;;;;;23.65;14.63;;;;;;;10.55;85.64;102730.94;5038264;28;20074;-70
2021/11/20 04:03:39;;;;;;;24.10;15.45;;;;;;;10.55;85.02;102721.41;5038016;28;20463;-70
2021/11/20 04:06:10;;;;;;;24.10;16.00;;;;;;;10.66;85.02;102719.63;5038068;28;20025;-70
2021/11/20 04:08:35;;;;;;;25.52;15.52;;;;;;;10.62;84.67;102719.09;5056048;28;20020;-70
2021/11/20 04:11:00;;;;;;;26.85;15.50;;;;;;;10.65;84.85;102718.00;5055923;28;20025;-70
2021/11/20 04:13:26;;;;;;;23.35;14.93;;;;;;;10.67;84.36;102719.47;5055862;28;20527;-70
2021/11/20 04:15:51;;;;;;;26.40;15.60;;;;;;;10.68;84.21;102723.72;5056239;28;20059;-70
2021/11/20 04:18:17;;;;;;;26.42;15.63;;;;;;;10.72;83.95;102725.03;5055790;28;20021;-70
2021/11/20 04:20:42;;;;;;;25.38;15.60;;;;;;;10.75;83.91;102729.13;5055802;28;20467;-70
2021/11/20 04:23:09;;;;;;;24.65;14.60;;;;;;;10.64;84.19;102718.94;5055737;28;20029;-70
2021/11/20 04:25:35;;;;;;;28.17;15.05;;;;;;;10.72;83.46;102713.88;5055652;28;20028;-70
2021/11/20 04:28:01;;;;;;;25.63;15.18;;;;;;;10.68;83.55;102718.53;5037720;28;20127;-70
2021/11/20 04:30:27;;;;;;;26.83;15.82;;;;;;;10.61;83.64;102717.44;5055573;28;20033;-70
2021/11/20 04:32:52;;;;;;;22.98;14.80;;;;;;;10.62;83.57;102716.50;5055546;28;20427;-71
2021/11/20 04:35:19;;;;;;;26.65;15.07;;;;;;;10.63;83.41;102714.75;5055482;28;20032;-71
2021/11/20 04:37:46;;;;;;;26.23;15.23;;;;;;;10.71;83.24;102713.09;5055557;28;20028;-71
2021/11/20 04:40:11;;;;;;;26.10;15.00;;;;;;;10.70;82.62;102708.03;5055270;28;20036;-71
2021/11/20 04:42:37;;;;;;;24.25;15.05;;;;;;;10.72;82.74;102711.31;5055400;28;20384;-71
2021/11/20 04:45:04;;;;;;;24.77;14.15;;;;;;;10.70;82.55;102708.03;5037422;28;20444;-71
2021/11/20 04:47:29;;;;;;;25.27;15.13;;;;;;;10.65;82.60;102702.50;5055339;28;20025;-71
2021/11/20 04:49:55;;;;;;;23.58;14.40;;;;;;;10.64;82.76;102714.59;5037281;28;20080;-71
2021/11/20 04:52:20;;;;;;;24.27;14.50;;;;;;;10.69;82.43;102712.41;5037347;28;20032;-71
2021/11/20 04:54:46;;;;;;;24.55;14.43;;;;;;;10.63;82.20;102712.16;5055076;28;20016;-71
2021/11/20 04:57:11;;;;;;;26.20;15.07;;;;;;;10.59;82.26;102714.22;5055006;28;20028;-71
2021/11/20 04:59:37;;;;;;;26.30;14.40;;;;;;;10.59;82.34;102707.25;5055029;28;20032;-71
2021/11/20 05:02:03;;;;;;;23.83;14.30;;;;;;;10.60;82.53;102708.06;5036658;28;20537;-71
2021/11/20 05:04:28;;;;;;;22.10;13.48;;;;;;;10.58;82.18;102703.03;5037184;28;20053;-71
2021/11/20 05:06:53;;;;;;;22.23;14.25;;;;;;;10.56;82.17;102710.13;5055399;28;20070;-71
2021/11/20 05:09:19;;;;;;;22.35;14.30;;;;;;;10.57;82.09;102706.56;5054874;28;20032;-71
2021/11/20 05:11:45;;;;;;;24.70;14.05;;;;;;;10.65;81.63;102712.84;5054754;28;20033;-71
2021/11/20 05:14:12;;;;;;;22.52;14.13;;;;;;;10.64;81.81;102708.59;5054725;28;20025;-71
2021/11/20 05:16:38;;;;;;;22.98;13.05;;;;;;;10.58;81.95;102705.59;5054605;28;20033;-72
2021/11/20 05:19:05;;;;;;;24.38;13.65;;;;;;;10.59;81.55;102694.34;5054712;28;20057;-71
2021/11/20 05:21:30;;;;;;;22.10;14.00;;;;;;;10.64;81.56;102700.84;5036789;28;20387;-72
2021/11/20 05:23:55;;;;;;;25.67;14.57;;;;;;;10.63;81.44;102694.06;5054491;28;20023;-71
2021/11/20 05:26:22;;;;;;;21.70;13.73;;;;;;;10.65;81.36;102695.53;5036615;28;20423;-71
2021/11/20 05:29:25;;;;;;;21.52;13.15;;;;;;;10.61;81.17;102694.19;5054464;28;20025;-71
2021/11/20 05:31:39;;;;;;;20.42;13.57;;;;;;;10.64;80.67;102682.75;5052178;28;20033;-71
2021/11/20 05:34:06;;;;;;;22.00;13.90;;;;;;;10.56;81.23;102683.47;5054335;28;20083;-71
2021/11/20 05:36:31;;;;;;;19.63;13.45;;;;;;;10.43;81.60;102676.00;5036374;28;20095;-71
2021/11/20 05:38:58;;;;;;;16.13;12.45;;;;;;;10.55;80.68;102681.81;5036422;28;20029;-71
2021/11/20 05:41:25;;;;;;;23.02;14.00;;;;;;;10.63;80.49;102679.34;5036354;28;20017;-71
2021/11/20 05:43:50;;;;;;;19.58;13.38;;;;;;;10.51;80.94;102675.31;5054169;28;20029;-71
2021/11/20 05:46:18;;;;;;;20.80;13.45;;;;;;;10.52;80.76;102680.31;5036225;28;20024;-71
2021/11/20 05:48:43;;;;;;;18.27;13.13;;;;;;;10.64;80.18;102675.78;5036266;28;20025;-71
2021/11/20 05:51:09;;;;;;;19.80;13.32;;;;;;;10.59;80.44;102672.84;5054592;28;20028;-71
2021/11/20 05:53:34;;;;;;;19.63;13.75;;;;;;;10.54;80.79;102673.25;5053934;28;20029;-72
2021/11/20 05:56:00;;;;;;;21.33;14.00;;;;;;;10.58;80.11;102659.06;5035953;28;20025;-71
2021/11/20 05:58:26;;;;;;;20.10;14.30;;;;;;;10.62;80.72;102654.47;5053936;28;20075;-71
2021/11/20 06:00:56;;;;;;;20.38;14.75;;;;;;;10.57;80.10;102654.06;5036102;28;20103;-71
2021/11/20 06:03:22;;;;;;;18.42;13.95;;;;;;;10.59;80.01;102652.97;5053822;28;20195;-71
2021/11/20 06:05:48;;;;;;;20.95;14.15;;;;;;;10.57;80.29;102652.28;5035821;28;20037;-71
2021/11/20 06:08:16;;;;;;;24.10;14.90;;;;;;;10.50;80.52;102638.31;5053704;28;20426;-71
2021/11/20 06:10:43;;;;;;;23.15;15.23;;;;;;;10.59;80.09;102632.28;5054284;28;20029;-71
2021/11/20 06:13:10;;;;;;;20.92;15.23;;;;;;;10.56;80.16;102639.53;5053644;28;20409;-71
2021/11/20 06:15:36;;;;;;;20.90;14.93;;;;;;;10.52;80.32;102625.22;5035115;28;20024;-71
2021/11/20 06:18:02;;;;;;;22.15;15.20;;;;;;;10.52;80.28;102627.81;5053560;28;20025;-72
2021/11/20 06:20:28;;;;;;;22.85;15.38;;;;;;;10.60;79.80;102622.75;5053580;28;20032;-71
2021/11/20 06:22:54;;;;;;;21.83;15.32;;;;;;;10.61;79.27;102617.44;5053539;28;20102;-71
2021/11/20 06:25:20;;;;;;;21.90;15.77;;;;;;;10.57;79.77;102625.63;5054049;28;20075;-71
2021/11/20 06:27:45;;;;;;;24.08;16.27;;;;;;;10.55;79.61;102624.94;5035705;28;20032;-71
2021/11/20 06:30:16;;;;;;;24.52;16.45;;;;;;;10.51;80.02;102621.03;5035511;28;20013;-71
2021/11/20 06:32:43;;;;;;;23.63;17.20;;;;;;;10.55;79.70;102618.00;5053428;28;20025;-71
2021/11/20 06:35:11;;;;;;;24.17;17.45;;;;;;;10.52;79.96;102615.69;5053283;28;20112;-71
2021/11/20 06:37:41;;;;;;;25.33;17.35;;;;;;;10.52;79.99;102609.72;5053663;28;20032;-71
2021/11/20 06:40:14;;;;;;;24.67;17.20;;;;;;;10.53;80.35;102611.34;5053150;28;20033;-70
2021/11/20 06:42:40;;;;;;;30.70;18.55;;;;;;;10.51;80.03;102621.03;5053153;28;20029;-71
2021/11/20 06:45:07;;;;;;;26.10;17.88;;;;;;;10.51;80.33;102613.28;5053153;28;20379;-71
2021/11/20 06:47:33;;;;;;;28.42;18.50;;;;;;;10.52;80.64;102615.69;5035155;28;20049;-72
2021/11/20 06:49:58;;;;;;;28.25;19.27;;;;;;;10.54;80.36;102626.72;5053239;28;20033;-72
2021/11/20 06:52:23;;;;;;;28.98;18.23;;;;;;;10.51;80.73;102623.59;5053192;28;20127;-72
2021/11/20 06:54:49;;;;;;;32.38;18.85;;;;;;;10.49;80.89;102626.31;5053118;28;20036;-72
2021/11/20 06:57:26;;;;;;;30.80;19.38;;;;;;;10.46;80.84;102624.03;5035547;28;20037;-72
2021/11/20 07:02:36;;;;;;;30.70;19.60;;;;;;;10.41;81.36;102623.63;5053912;28;20112;-70
2021/11/20 07:05:04;;;;;;;32.88;19.98;;;;;;;10.35;81.14;102617.25;5053057;28;20055;-70
2021/11/20 07:07:33;;;;;;;31.58;19.95;;;;;;;10.31;81.50;102612.50;5052969;28;20045;-70
2021/11/20 07:09:58;;;;;;;32.08;19.98;;;;;;;10.36;81.56;102612.91;5052957;28;20056;-70
2021/11/20 07:12:24;;;;;;;32.58;20.48;;;;;;;10.39;81.04;102612.63;5052870;28;20052;-71
2021/11/20 07:14:49;;;;;;;34.28;21.23;;;;;;;10.38;81.07;102614.38;5052962;28;20033;-72
2021/11/20 07:17:14;;;;;;;34.72;20.02;;;;;;;10.43;81.41;102626.06;5053020;28;20379;-70
2021/11/20 07:19:40;;;;;;;32.72;20.73;;;;;;;10.36;81.12;102620.66;5053030;28;20028;-70
2021/11/20 07:22:05;;;;;;;33.53;21.85;;;;;;;10.29;81.36;102622.16;5053410;28;20021;-70
2021/11/20 07:24:30;;;;;;;33.78;21.77;;;;;;;10.41;80.75;102618.44;5034918;28;20119;-70
2021/11/20 07:26:55;;;;;;;34.13;22.23;;;;;;;10.36;80.65;102612.91;5055984;28;20067;-70
2021/11/20 07:29:21;;;;;;;35.63;22.15;;;;;;;10.34;80.53;102614.81;5038702;28;20044;-70
2021/11/20 07:31:46;;;;;;;34.53;21.63;;;;;;;10.31;80.42;102618.50;5038645;28;20033;-71
2021/11/20 07:34:12;;;;;;;38.50;22.45;;;;;;;10.29;80.79;102614.41;5038537;28;20491;-70
2021/11/20 07:36:39;;;;;;;38.03;23.05;;;;;;;10.38;80.35;102609.22;5056188;28;20032;-71
2021/11/20 07:39:10;;;;;;;34.20;22.10;;;;;;;10.33;80.59;102610.63;5038687;28;20025;-71
2021/11/20 07:41:36;;;;;;;35.90;22.38;;;;;;;10.34;80.52;102600.13;5056528;28;20022;-71
2021/11/20 07:44:01;;;;;;;34.90;23.00;;;;;;;10.23;80.25;102584.75;5038380;28;20494;-71
2021/11/20 07:46:26;;;;;;;33.67;22.33;;;;;;;10.34;80.42;102601.91;5038577;28;20017;-71
2021/11/20 07:48:52;;;;;;;32.88;22.17;;;;;;;10.25;80.61;102593.19;5056409;28;20024;-71
2021/11/20 07:51:19;;;;;;;37.90;24.25;;;;;;;10.31;80.34;102597.81;5038386;28;20033;-71
2021/11/20 07:53:45;;;;;;;33.30;21.70;;;;;;;10.28;80.72;102599.88;5038186;28;20020;-71
2021/11/20 07:56:12;;;;;;;33.42;22.85;;;;;;;10.27;80.26;102596.47;5056136;28;20025;-71
2021/11/20 07:58:42;;;;;;;35.65;23.17;;;;;;;10.37;80.32;102602.41;5055946;28;20036;-72
2021/11/20 08:01:08;;;;;;;37.40;23.63;;;;;;;10.45;79.48;102603.50;5056019;28;20032;-72
2021/11/20 08:03:34;;;;;;;34.92;23.58;;;;;;;10.48;79.10;102595.47;5055840;28;20047;-72
2021/11/20 08:06:00;;;;;;;34.58;23.67;;;;;;;10.54;79.17;102589.72;5038088;28;20028;-72
2021/11/20 08:08:26;;;;;;;35.00;23.20;;;;;;;10.53;78.93;102591.50;5055826;28;20081;-71
2021/11/20 08:10:51;;;;;;;34.13;22.67;;;;;;;10.41;79.52;102581.47;5038056;28;20074;-72
2021/11/20 08:13:17;;;;;;;36.60;24.08;;;;;;;10.43;79.90;102588.13;5055806;28;20526;-72
2021/11/20 08:15:44;;;;;;;33.78;21.73;;;;;;;10.51;79.40;102579.66;5055577;28;20051;-72
2021/11/20 08:18:10;;;;;;;34.72;21.50;;;;;;;10.51;79.56;102575.31;5055543;28;20103;-72
2021/11/20 08:20:38;;;;;;;32.70;21.77;;;;;;;10.58;78.99;102567.78;5055552;28;20111;-70
2021/11/20 08:23:06;;;;;;;40.30;22.05;;;;;;;10.56;79.46;102564.56;5037580;28;20027;-71
2021/11/20 08:25:31;;;;;;;34.20;21.85;;;;;;;10.45;79.47;102552.63;5055346;28;20036;-72
2021/11/20 08:27:58;;;;;;;35.03;22.00;;;;;;;10.52;79.83;102563.19;5055415;28;20376;-71
2021/11/20 08:30:27;;;;;;;34.85;21.30;;;;;;;10.65;79.40;102566.25;5055154;28;20116;-71
2021/11/20 08:32:54;;;;;;;32.83;21.30;;;;;;;10.55;79.13;102561.13;5055423;28;20108;-71
2021/11/20 08:35:21;;;;;;;33.97;21.95;;;;;;;10.54;79.55;102550.94;5055900;28;20490;-71
2021/11/20 08:37:46;;;;;;;34.67;22.25;;;;;;;10.54;79.57;102543.19;5037222;28;20123;-71
2021/11/20 08:40:14;;;;;;;35.28;21.83;;;;;;;10.49;80.31;102553.13;5055598;28;20500;-71
2021/11/20 08:42:41;;;;;;;33.80;20.63;;;;;;;10.53;79.75;102536.38;5055237;28;20472;-71
2021/11/20 08:45:10;;;;;;;34.38;20.45;;;;;;;10.51;80.16;102539.13;5055191;28;20071;-71
2021/11/20 08:47:36;;;;;;;31.17;20.48;;;;;;;10.48;79.98;102538.59;5055686;28;20367;-72
2021/11/20 08:50:05;;;;;;;33.88;20.80;;;;;;;10.61;79.56;102536.47;5037171;28;20028;-71
2021/11/20 08:52:31;;;;;;;33.72;20.75;;;;;;;10.61;79.51;102533.88;5054791;28;20025;-71
2021/11/20 08:54:56;;;;;;;32.10;21.20;;;;;;;10.62;79.64;102520.03;5036981;28;20025;-71
2021/11/20 08:57:23;;;;;;;34.53;20.65;;;;;;;10.65;79.47;102526.69;5036971;28;20373;-71
2021/11/20 08:59:48;;;;;;;35.10;20.58;;;;;;;10.56;79.74;102518.81;5036988;28;20197;-72
2021/11/20 09:02:46;;;;;;;34.08;21.20;;;;;;;10.67;79.72;102528.13;5054837;28;20487;-72
2021/11/20 09:05:15;;;;;;;34.15;21.20;;;;;;;10.63;80.07;102516.47;5050498;28;20045;-71
2021/11/20 09:08:04;;;;;;;32.83;21.23;;;;;;;10.60;80.13;102524.50;5037120;28;20099;-71
2021/11/20 09:10:50;;;;;;;33.60;20.58;;;;;;;10.52;80.17;102521.81;5037268;28;20368;-71
2021/11/20 09:13:30;;;;;;;34.70;21.05;;;;;;;10.55;80.55;102522.34;5054716;28;20523;-71
2021/11/20 09:16:06;;;;;;;32.22;20.95;;;;;;;10.67;80.09;102514.41;5054530;28;20456;-71
2021/11/20 09:18:34;;;;;;;35.95;21.42;;;;;;;10.74;79.92;102524.03;5054674;28;20074;-71
2021/11/20 09:21:00;;;;;;;33.88;21.35;;;;;;;10.72;79.67;102528.53;5054495;28;20104;-71
2021/11/20 09:23:25;;;;;;;34.35;21.02;;;;;;;10.71;79.74;102518.34;5036589;28;20036;-70
2021/11/20 09:25:53;;;;;;;34.65;22.05;;;;;;;10.73;80.09;102512.06;5036505;28;20024;-71
2021/11/20 09:28:19;;;;;;;36.65;22.83;;;;;;;10.73;80.05;102509.47;5054372;28;20388;-71
2021/11/20 09:30:50;;;;;;;34.80;21.10;;;;;;;10.75;80.01;102511.91;5054404;28;20103;-71
2021/11/20 09:33:19;;;;;;;34.72;21.52;;;;;;;10.68;80.50;102510.88;5036388;28;20028;-70
2021/11/20 09:35:46;;;;;;;34.78;22.42;;;;;;;10.78;79.68;102501.25;5054181;28;20503;-72
2021/11/20 09:38:12;;;;;;;36.47;23.20;;;;;;;10.72;79.90;102496.69;5054403;28;20033;-71
2021/11/20 09:40:42;;;;;;;37.63;22.88;;;;;;;10.84;79.80;102500.69;5054317;28;20028;-71
2021/11/20 09:43:09;;;;;;;39.88;23.70;;;;;;;10.74;80.18;102502.53;5054257;28;20029;-71
2021/11/20 09:45:40;;;;;;;38.42;23.75;;;;;;;10.69;80.47;102496.97;5054230;28;20479;-71
2021/11/20 09:48:14;;;;;;;41.22;23.42;;;;;;;10.71;80.13;102495.06;5036332;28;20388;-72
2021/11/20 09:50:51;;;;;;;40.75;24.35;;;;;;;10.88;80.22;102512.38;5053993;28;20494;-72
2021/11/20 09:53:16;;;;;;;41.90;24.38;;;;;;;10.83;80.12;102502.47;5036318;28;20021;-72
2021/11/20 09:55:46;;;;;;;40.47;24.13;;;;;;;10.95;79.83;102497.88;5053868;28;20136;-72
2021/11/20 09:58:33;;;;;;;42.28;25.52;;;;;;;10.87;80.68;102495.22;5053801;28;20078;-72
2021/11/20 10:01:20;;;;;;;44.53;25.13;;;;;;;10.77;80.93;102500.47;5035868;28;20468;-72
2021/11/20 10:03:57;;;;;;;43.15;24.88;;;;;;;10.99;80.35;102494.06;5053848;28;20082;-71
2021/11/20 10:06:28;;;;;;;49.55;26.63;;;;;;;10.95;80.43;102495.28;5053782;28;20102;-70
2021/11/20 10:09:16;;;;;;;44.45;25.23;;;;;;;11.07;80.31;102491.53;5053760;28;20023;-70
2021/11/20 10:15:16;;;;;;;47.80;25.77;;;;;;;10.97;80.79;102487.41;5053705;28;20387;-72
2021/11/20 10:18:02;;;;;;;48.15;25.42;;;;;;;10.89;80.91;102485.53;5035671;28;20029;-70
2021/11/20 10:20:45;;;;;;;48.65;26.08;;;;;;;10.90;81.10;102489.75;5053759;28;20419;-70
2021/11/20 10:23:10;;;;;;;46.60;25.63;;;;;;;10.92;80.59;102479.25;5053607;28;20495;-72
2021/11/20 10:26:13;;;;;;;46.67;25.10;;;;;;;10.88;81.52;102472.78;5035599;28;20024;-70
2021/11/20 10:28:57;;;;;;;44.13;24.98;;;;;;;10.91;81.54;102472.47;5035559;28;20029;-71
2021/11/20 10:31:41;;;;;;;45.67;25.85;;;;;;;11.01;80.98;102475.78;5035545;28;20056;-71
2021/11/20 10:34:18;;;;;;;50.40;26.50;;;;;;;10.87;81.68;102469.34;5053985;28;20028;-70
2021/11/20 10:37:05;;;;;;;53.35;27.50;;;;;;;10.92;82.04;102474.91;5053516;28;20025;-72
2021/11/20 10:39:33;;;;;;;47.47;25.95;;;;;;;10.94;81.66;102470.41;5053378;28;20060;-71
2021/11/20 10:42:15;;;;;;;53.58;26.73;;;;;;;10.91;81.83;102465.53;5053183;28;20040;-72
2021/11/20 10:44:43;;;;;;;46.80;26.38;;;;;;;10.99;81.67;102462.19;5053278;28;20476;-71
2021/11/20 10:47:12;;;;;;;50.35;26.08;;;;;;;11.00;81.46;102454.28;5053124;28;20032;-71
2021/11/20 10:50:17;;;;;;;50.97;26.48;;;;;;;10.99;81.66;102454.41;5053354;28;20439;-71
2021/11/20 10:52:52;;;;;;;48.75;26.38;;;;;;;11.01;81.80;102445.53;5024465;28;20032;-70
2021/11/20 10:55:40;;;;;;;50.50;27.00;;;;;;;11.10;80.99;102443.03;5036351;28;20102;-72
2021/11/20 10:58:27;;;;;;;47.15;26.00;;;;;;;11.06;81.60;102435.56;5053027;28;20494;-71
2021/11/20 11:01:20;;;;;;;48.60;26.52;;;;;;;10.99;81.93;102436.31;5054619;28;20383;-71
2021/11/20 11:03:51;;;;;;;48.57;25.80;;;;;;;11.02;81.81;102434.25;5057142;28;20125;-71
2021/11/20 11:06:41;;;;;;;57.45;26.67;;;;;;;11.00;82.18;102430.19;5038847;28;20033;-70
2021/11/20 11:09:31;;;;;;;51.03;26.15;;;;;;;11.05;82.08;102415.03;5057604;28;20021;-70
2021/11/20 11:12:14;;;;;;;47.05;25.85;;;;;;;11.02;81.86;102416.16;5058239;28;20067;-71
2021/11/20 11:14:53;;;;;;;;;;;;;;;10.98;82.49;102408.81;5039412;28;20039;-71
2021/11/20 11:21:04;;;;;;;47.28;25.20;;;;;;;10.95;82.46;102399.59;5057144;28;20024;-70
2021/11/20 11:23:48;;;;;;;47.90;25.38;;;;;;;11.00;82.33;102387.03;5057371;28;20471;-71
2021/11/20 11:26:16;;;;;;;47.00;25.05;;;;;;;11.01;82.19;102383.47;5057273;28;20017;-72
2021/11/20 11:28:58;;;;;;;51.08;28.00;;;;;;;11.11;81.85;102378.22;5056637;28;20028;-71
2021/11/20 11:31:29;;;;;;;48.67;25.73;;;;;;;11.22;81.40;102374.53;5056698;28;20475;-72
2021/11/20 11:34:00;;;;;;;53.67;25.73;;;;;;;11.00;82.47;102363.75;5038719;28;20025;-71